createdAt,value
2018-03-28T05:47:46.270Z,10
2018-03-28T05:48:47.539Z,10
2018-03-28T05:49:47.635Z,10
2018-03-28T05:50:47.427Z,10
2018-03-28T05:51:47.284Z,10
2018-03-28T05:52:47.256Z,10
2018-03-28T05:53:47.565Z,10
2018-03-28T05:54:47.195Z,10
2018-03-28T05:55:46.556Z,10
2018-03-28T05:56:47.517Z,15
2018-03-28T05:57:48.067Z,15
2018-03-28T05:58:48.214Z,15
2018-03-28T05:59:47.521Z,15
2018-03-28T06:00:47.048Z,15
2018-03-28T06:01:47.889Z,15
2018-03-28T06:02:47.709Z,15
2018-03-28T06:03:48.493Z,15
2018-03-28T06:04:47.951Z,15
2018-03-28T06:05:48.002Z,15
2018-03-28T06:06:48.011Z,20
2018-03-28T06:07:48.095Z,20
2018-03-28T06:08:48.022Z,20
2018-03-28T06:09:48.068Z,20
2018-03-28T06:10:47.817Z,20
2018-03-28T06:11:48.596Z,20
2018-03-28T06:12:48.804Z,20
2018-03-28T06:13:48.356Z,20
2018-03-28T06:14:48.398Z,20
2018-03-28T06:15:47.902Z,20
2018-03-28T06:16:55.626Z,20
2018-03-28T06:17:56.046Z,20
2018-03-28T06:18:55.933Z,20
2018-03-28T06:19:55.504Z,20
2018-03-28T06:20:56.025Z,20
2018-03-28T06:21:55.808Z,20
2018-03-28T06:22:56.932Z,20
2018-03-28T06:23:56.356Z,20
2018-03-28T06:24:56.611Z,20
2018-03-28T06:25:56.328Z,20
2018-03-28T06:26:56.339Z,20
2018-03-28T06:27:56.887Z,20
2018-03-28T06:28:57.519Z,20
2018-03-28T06:29:56.373Z,20
2018-03-28T06:30:56.671Z,15
2018-03-28T06:31:57.442Z,15
2018-03-28T06:32:57.597Z,15
2018-03-28T06:33:57.225Z,15
2018-03-28T06:34:57.270Z,15
2018-03-28T06:35:57.516Z,15
2018-03-28T06:36:57.522Z,15
2018-03-28T06:37:57.768Z,15
2018-03-28T06:38:57.799Z,15
2018-03-28T06:39:57.532Z,15
2018-03-28T06:40:58.185Z,15
2018-03-28T06:41:58.224Z,15
2018-03-28T06:42:57.907Z,10
2018-03-28T06:43:58.165Z,10
2018-03-28T06:44:58.202Z,15
2018-03-28T06:45:57.950Z,15
2018-03-28T06:46:57.689Z,10
2018-03-28T06:47:58.026Z,10
2018-03-28T06:48:58.287Z,10
2018-03-28T06:49:58.329Z,10
2018-03-28T06:50:58.308Z,10
2018-03-28T06:51:57.813Z,10
2018-03-28T06:52:57.802Z,10
2018-03-28T06:53:58.804Z,10
2018-03-28T06:54:58.334Z,10
2018-03-28T06:55:58.083Z,10
2018-03-28T06:56:58.085Z,10
2018-03-28T06:57:58.890Z,10
2018-03-28T06:58:58.620Z,10
2018-03-28T06:59:58.895Z,10
2018-03-28T07:00:59.018Z,10
2018-03-28T07:01:58.801Z,15
2018-03-28T07:02:58.572Z,15
2018-03-28T07:03:58.705Z,15
2018-03-28T07:04:59.068Z,15
2018-03-28T07:05:59.446Z,15
2018-03-28T07:06:59.298Z,15
2018-03-28T07:07:59.313Z,15
2018-03-28T07:08:58.913Z,15
2018-03-28T07:09:59.714Z,15
2018-03-28T07:11:00.377Z,15
2018-03-28T07:11:59.333Z,20
2018-03-28T07:13:00.189Z,20
2018-03-28T07:14:00.440Z,20
2018-03-28T07:14:59.672Z,20
2018-03-28T07:16:00.875Z,20
2018-03-28T07:17:00.756Z,20
2018-03-28T07:18:01.585Z,20
2018-03-28T07:19:00.016Z,20
2018-03-28T07:20:00.412Z,25
2018-03-28T07:21:01.079Z,25
2018-03-28T07:22:01.889Z,20
2018-03-28T07:23:01.909Z,25
2018-03-28T07:24:01.670Z,25
2018-03-28T07:25:00.924Z,25
2018-03-28T07:26:00.554Z,25
2018-03-28T07:27:00.758Z,25
2018-03-28T07:28:01.345Z,25
2018-03-28T07:29:01.240Z,25
2018-03-28T07:30:01.111Z,30
2018-03-28T07:31:01.274Z,25
2018-03-28T07:32:01.381Z,25
2018-03-28T07:33:01.547Z,35
2018-03-28T07:34:01.801Z,30
2018-03-28T07:35:01.946Z,30
2018-03-28T07:36:01.960Z,30
2018-03-28T07:37:02.004Z,25
2018-03-28T07:38:02.640Z,25
2018-03-28T07:39:02.416Z,30
2018-03-28T07:40:02.827Z,25
2018-03-28T07:41:02.300Z,25
2018-03-28T07:42:02.615Z,25
2018-03-28T07:43:02.717Z,25
2018-03-28T07:44:03.081Z,25
2018-03-28T07:45:03.551Z,25
2018-03-28T07:46:03.907Z,30
2018-03-28T07:47:03.435Z,25
2018-03-28T07:48:03.819Z,30
2018-03-28T07:49:03.701Z,25
2018-03-28T07:50:04.108Z,30
2018-03-28T07:51:03.149Z,30
2018-03-28T07:52:04.200Z,35
2018-03-28T07:53:03.640Z,30
2018-03-28T07:54:04.031Z,35
2018-03-28T07:55:04.748Z,30
2018-03-28T07:56:03.986Z,35
2018-03-28T07:57:04.727Z,35
2018-03-28T07:58:04.844Z,35
2018-03-28T07:59:05.284Z,35
2018-03-28T08:00:23.693Z,40
2018-03-28T08:01:05.552Z,35
2018-03-28T08:02:05.460Z,35
2018-03-28T08:03:04.949Z,40
2018-03-28T08:04:05.886Z,45
2018-03-28T08:05:05.845Z,40
2018-03-28T08:06:05.534Z,40
2018-03-28T08:07:05.939Z,40
2018-03-28T08:08:05.632Z,40
2018-03-28T08:09:05.316Z,45
2018-03-28T08:10:05.340Z,45
2018-03-28T08:11:05.348Z,45
2018-03-28T08:12:05.639Z,50
2018-03-28T08:13:05.990Z,45
2018-03-28T08:14:06.534Z,50
2018-03-28T08:15:06.863Z,45
2018-03-28T08:16:06.283Z,50
2018-03-28T08:17:06.816Z,50
2018-03-28T08:18:06.788Z,55
2018-03-28T08:19:06.730Z,60
2018-03-28T08:20:06.791Z,65
2018-03-28T08:21:07.036Z,70
2018-03-28T08:22:07.141Z,70
2018-03-28T08:23:07.840Z,70
2018-03-28T08:24:07.792Z,80
2018-03-28T08:25:07.797Z,80
2018-03-28T08:26:08.671Z,90
2018-03-28T08:27:08.719Z,95
2018-03-28T08:28:08.143Z,110
2018-03-28T08:29:08.133Z,110
2018-03-28T08:30:08.976Z,100
2018-03-28T08:31:08.446Z,95
2018-03-28T08:32:08.709Z,95
2018-03-28T08:33:08.954Z,90
2018-03-28T08:34:09.159Z,95
2018-03-28T08:35:09.219Z,100
2018-03-28T08:36:09.443Z,95
2018-03-28T08:37:09.448Z,85
2018-03-28T08:38:09.997Z,90
2018-03-28T08:39:09.696Z,95
2018-03-28T08:40:10.007Z,100
2018-03-28T08:41:09.482Z,90
2018-03-28T08:42:10.034Z,100
2018-03-28T08:43:10.074Z,100
2018-03-28T08:44:09.812Z,95
2018-03-28T08:45:09.874Z,105
2018-03-28T08:46:09.885Z,100
2018-03-28T08:47:09.612Z,100
2018-03-28T08:48:09.869Z,100
2018-03-28T08:49:10.448Z,100
2018-03-28T08:50:10.167Z,100
2018-03-28T08:51:10.723Z,100
2018-03-28T08:52:10.796Z,95
2018-03-28T08:53:10.480Z,90
2018-03-28T08:54:11.380Z,85
2018-03-28T08:55:10.778Z,90
2018-03-28T08:56:11.403Z,85
2018-03-28T08:57:11.120Z,85
2018-03-28T08:58:11.410Z,85
2018-03-28T08:59:10.908Z,85
2018-03-28T09:00:14.432Z,75
2018-03-28T09:01:12.312Z,75
2018-03-28T09:02:14.336Z,80
2018-03-28T09:03:14.571Z,70
2018-03-28T09:04:13.106Z,70
2018-03-28T09:05:13.531Z,70
2018-03-28T09:06:13.089Z,70
2018-03-28T09:07:13.287Z,70
2018-03-28T09:08:13.823Z,80
2018-03-28T09:09:13.107Z,85
2018-03-28T09:10:13.071Z,85
2018-03-28T09:11:13.600Z,80
2018-03-28T09:12:13.820Z,70
2018-03-28T09:13:13.841Z,85
2018-03-28T09:14:14.100Z,75
2018-03-28T09:15:14.655Z,80
2018-03-28T09:16:14.100Z,80
2018-03-28T09:17:14.605Z,90
2018-03-28T09:18:13.900Z,85
2018-03-28T09:19:13.931Z,85
2018-03-28T09:20:14.551Z,80
2018-03-28T09:21:14.186Z,85
2018-03-28T09:22:14.297Z,85
2018-03-28T09:23:14.184Z,90
2018-03-28T09:24:14.464Z,90
2018-03-28T09:25:14.930Z,80
2018-03-28T09:26:15.098Z,90
2018-03-28T09:27:15.502Z,95
2018-03-28T09:28:15.629Z,85
2018-03-28T09:29:16.022Z,85
2018-03-28T09:30:15.690Z,90
2018-03-28T09:31:16.422Z,90
2018-03-28T09:32:16.183Z,80
2018-03-28T09:33:16.192Z,80
2018-03-28T09:34:17.022Z,90
2018-03-28T09:35:16.327Z,90
2018-03-28T09:36:16.524Z,80
2018-03-28T09:37:16.931Z,90
2018-03-28T09:38:16.834Z,90
2018-03-28T09:39:17.407Z,90
2018-03-28T09:40:17.393Z,85
2018-03-28T09:41:17.236Z,100
2018-03-28T09:42:17.801Z,90
2018-03-28T09:43:17.956Z,90
2018-03-28T09:44:17.869Z,95
2018-03-28T09:45:17.861Z,95
2018-03-28T09:46:18.281Z,90
2018-03-28T09:47:18.670Z,95
2018-03-28T09:48:19.087Z,90
2018-03-28T09:49:19.479Z,95
2018-03-28T09:50:19.248Z,100
2018-03-28T09:51:19.498Z,95
2018-03-28T09:52:19.279Z,100
2018-03-28T09:53:19.397Z,95
2018-03-28T09:54:20.146Z,80
2018-03-28T09:55:20.552Z,90
2018-03-28T09:56:20.680Z,110
2018-03-28T09:57:20.831Z,95
2018-03-28T09:58:20.340Z,90
2018-03-28T09:59:21.681Z,90
2018-03-28T10:00:21.560Z,90
2018-03-28T10:01:20.784Z,80
2018-03-28T10:02:21.326Z,90
2018-03-28T10:03:21.819Z,90
2018-03-28T10:04:21.891Z,90
2018-03-28T10:05:21.971Z,95
2018-03-28T10:06:22.381Z,95
2018-03-28T10:07:22.474Z,95
2018-03-28T10:08:23.105Z,105
2018-03-28T10:09:22.764Z,95
2018-03-28T10:10:22.890Z,110
2018-03-28T10:11:23.036Z,110
2018-03-28T10:12:22.777Z,110
2018-03-28T10:13:23.585Z,120
2018-03-28T10:14:23.424Z,125
2018-03-28T10:15:22.934Z,120
2018-03-28T10:16:24.027Z,125
2018-03-28T10:17:23.746Z,135
2018-03-28T10:18:24.161Z,135
2018-03-28T10:19:24.255Z,120
2018-03-28T10:20:24.896Z,130
2018-03-28T10:21:25.796Z,115
2018-03-28T10:22:25.574Z,150
2018-03-28T10:23:25.583Z,140
2018-03-28T10:24:25.956Z,140
2018-03-28T10:25:25.724Z,160
2018-03-28T10:26:26.144Z,140
2018-03-28T10:27:26.793Z,145
2018-03-28T10:28:26.822Z,155
2018-03-28T10:29:26.575Z,145
2018-03-28T10:30:26.945Z,140
2018-03-28T10:31:26.963Z,150
2018-03-28T10:32:26.997Z,135
2018-03-28T10:33:27.006Z,135
2018-03-28T10:34:27.027Z,135
2018-03-28T10:35:26.757Z,130
2018-03-28T10:36:26.909Z,115
2018-03-28T10:37:27.013Z,115
2018-03-28T10:38:26.543Z,135
2018-03-28T10:39:27.607Z,120
2018-03-28T10:40:27.830Z,125
2018-03-28T10:41:27.645Z,135
2018-03-28T10:42:27.782Z,135
2018-03-28T10:43:28.426Z,135
2018-03-28T10:44:28.290Z,135
2018-03-28T10:45:28.565Z,130
2018-03-28T10:46:28.700Z,115
2018-03-28T10:47:29.338Z,110
2018-03-28T10:48:29.706Z,110
2018-03-28T10:49:29.457Z,130
2018-03-28T10:50:29.574Z,120
2018-03-28T10:51:29.958Z,115
2018-03-28T10:52:30.328Z,115
2018-03-28T10:53:30.990Z,105
2018-03-28T10:54:30.755Z,130
2018-03-28T10:55:30.881Z,155
2018-03-28T10:56:31.531Z,140
2018-03-28T10:57:31.548Z,140
2018-03-28T10:58:31.560Z,160
2018-03-28T10:59:31.318Z,160
2018-03-28T11:00:31.247Z,155
2018-03-28T11:01:31.844Z,135
2018-03-28T11:02:32.146Z,135
2018-03-28T11:03:32.163Z,135
2018-03-28T11:04:31.421Z,135
2018-03-28T11:05:31.766Z,135
2018-03-28T11:06:32.425Z,150
2018-03-28T11:07:32.659Z,145
2018-03-28T11:08:32.674Z,145
2018-03-28T11:09:31.907Z,140
2018-03-28T11:10:32.877Z,150
2018-03-28T11:11:32.622Z,135
2018-03-28T11:12:32.119Z,135
2018-03-28T11:13:32.974Z,140
2018-03-28T11:14:32.460Z,135
2018-03-28T11:15:32.784Z,180
2018-03-28T11:16:32.816Z,190
2018-03-28T11:17:32.872Z,160
2018-03-28T11:18:32.856Z,165
2018-03-28T11:19:32.889Z,170
2018-03-28T11:20:32.699Z,160
2018-03-28T11:21:33.030Z,145
2018-03-28T11:22:33.701Z,180
2018-03-28T11:23:33.644Z,170
2018-03-28T11:24:33.661Z,160
2018-03-28T11:25:33.419Z,155
2018-03-28T11:26:33.986Z,155
2018-03-28T11:27:32.937Z,150
2018-03-28T11:28:33.784Z,145
2018-03-28T11:29:34.068Z,165
2018-03-28T11:30:33.813Z,160
2018-03-28T11:31:33.827Z,155
2018-03-28T11:32:34.152Z,150
2018-03-28T11:33:33.872Z,145
2018-03-28T11:34:34.186Z,135
2018-03-28T11:35:34.211Z,155
2018-03-28T11:36:34.251Z,140
2018-03-28T11:37:34.856Z,145
2018-03-28T11:38:34.864Z,140
2018-03-28T11:39:34.073Z,140
2018-03-28T11:40:34.087Z,155
2018-03-28T11:41:34.407Z,130
2018-03-28T11:42:34.996Z,150
2018-03-28T11:43:35.307Z,150
2018-03-28T11:44:35.127Z,165
2018-03-28T11:45:35.071Z,140
2018-03-28T11:46:34.828Z,145
2018-03-28T11:47:35.467Z,140
2018-03-28T11:48:35.215Z,165
2018-03-28T11:49:34.926Z,150
2018-03-28T11:50:35.252Z,155
2018-03-28T11:51:35.546Z,135
2018-03-28T11:52:35.290Z,155
2018-03-28T11:53:35.319Z,140
2018-03-28T11:54:35.060Z,145
2018-03-28T11:55:35.085Z,130
2018-03-28T11:56:35.928Z,160
2018-03-28T11:57:35.424Z,140
2018-03-28T11:58:35.761Z,140
2018-03-28T11:59:35.545Z,135
2018-03-28T12:00:36.400Z,125
2018-03-28T12:01:36.915Z,145
2018-03-28T12:02:36.169Z,145
2018-03-28T12:03:36.413Z,150
2018-03-28T12:04:36.452Z,135
2018-03-28T12:05:36.224Z,120
2018-03-28T12:06:36.153Z,120
2018-03-28T12:07:36.702Z,140
2018-03-28T12:08:36.732Z,140
2018-03-28T12:09:36.478Z,150
2018-03-28T12:10:36.503Z,160
2018-03-28T12:11:36.269Z,150
2018-03-28T12:12:37.103Z,165
2018-03-28T12:13:36.296Z,150
2018-03-28T12:14:36.810Z,160
2018-03-28T12:15:37.161Z,185
2018-03-28T12:16:37.187Z,175
2018-03-28T12:17:36.656Z,175
2018-03-28T12:18:37.462Z,180
2018-03-28T12:19:37.423Z,185
2018-03-28T12:20:37.017Z,175
2018-03-28T12:21:37.474Z,160
2018-03-28T12:22:37.311Z,175
2018-03-28T12:23:37.320Z,195
2018-03-28T12:24:37.060Z,190
2018-03-28T12:25:37.402Z,190
2018-03-28T12:26:37.656Z,190
2018-03-28T12:27:37.617Z,215
2018-03-28T12:28:37.379Z,230
2018-03-28T12:29:37.427Z,200
2018-03-28T12:30:37.557Z,185
2018-03-28T12:31:38.025Z,175
2018-03-28T12:32:37.466Z,190
2018-03-28T12:33:37.669Z,180
2018-03-28T12:34:37.179Z,165
2018-03-28T12:35:37.948Z,160
2018-03-28T12:36:37.455Z,145
2018-03-28T12:37:38.474Z,135
2018-03-28T12:38:38.447Z,150
2018-03-28T12:39:38.295Z,150
2018-03-28T12:40:38.117Z,140
2018-03-28T12:41:38.008Z,145
2018-03-28T12:42:38.057Z,145
2018-03-28T12:43:38.232Z,165
2018-03-28T12:44:38.135Z,145
2018-03-28T12:45:38.575Z,135
2018-03-28T12:46:38.276Z,145
2018-03-28T12:47:39.126Z,160
2018-03-28T12:48:39.336Z,150
2018-03-28T12:49:39.341Z,150
2018-03-28T12:50:39.120Z,140
2018-03-28T12:51:39.774Z,140
2018-03-28T12:52:39.559Z,150
2018-03-28T12:53:39.525Z,125
2018-03-28T12:54:39.697Z,110
2018-03-28T12:55:40.292Z,115
2018-03-28T12:56:40.273Z,125
2018-03-28T12:57:40.585Z,115
2018-03-28T12:58:40.336Z,130
2018-03-28T12:59:40.341Z,115
2018-03-28T13:00:40.858Z,125
2018-03-28T13:01:40.371Z,140
2018-03-28T13:02:40.774Z,140
2018-03-28T13:03:40.904Z,145
2018-03-28T13:04:40.421Z,160
2018-03-28T13:05:40.700Z,160
2018-03-28T13:06:41.007Z,165
2018-03-28T13:07:40.430Z,165
2018-03-28T13:08:41.218Z,155
2018-03-28T13:09:40.965Z,155
2018-03-28T13:10:41.720Z,160
2018-03-28T13:11:41.482Z,165
2018-03-28T13:12:40.992Z,155
2018-03-28T13:13:41.491Z,165
2018-03-28T13:14:41.074Z,180
2018-03-28T13:15:41.337Z,160
2018-03-28T13:16:42.097Z,170
2018-03-28T13:17:42.315Z,150
2018-03-28T13:18:42.218Z,140
2018-03-28T13:19:42.193Z,130
2018-03-28T13:20:42.017Z,175
2018-03-28T13:21:42.526Z,140
2018-03-28T13:22:42.554Z,140
2018-03-28T13:23:42.559Z,140
2018-03-28T13:24:42.340Z,135
2018-03-28T13:25:42.087Z,145
2018-03-28T13:26:42.560Z,130
2018-03-28T13:27:42.392Z,145
2018-03-28T13:28:42.355Z,140
2018-03-28T13:29:43.207Z,125
2018-03-28T13:30:43.410Z,145
2018-03-28T13:31:43.039Z,135
2018-03-28T13:32:43.005Z,150
2018-03-28T13:33:43.507Z,170
2018-03-28T13:34:43.271Z,175
2018-03-28T13:35:43.751Z,170
2018-03-28T13:36:43.531Z,190
2018-03-28T13:37:44.111Z,200
2018-03-28T13:38:44.134Z,220
2018-03-28T13:39:43.381Z,195
2018-03-28T13:40:44.656Z,170
2018-03-28T13:41:44.475Z,170
2018-03-28T13:42:43.924Z,185
2018-03-28T13:43:45.334Z,185
2018-03-28T13:44:44.516Z,190
2018-03-28T13:45:44.472Z,225
2018-03-28T13:46:44.785Z,255
2018-03-28T13:47:44.197Z,220
2018-03-28T13:48:45.395Z,185
2018-03-28T13:49:44.502Z,170
2018-03-28T13:50:45.587Z,175
2018-03-28T13:51:45.063Z,135
2018-03-28T13:52:45.161Z,150
2018-03-28T13:53:45.454Z,140
2018-03-28T13:54:45.126Z,125
2018-03-28T13:55:45.479Z,135
2018-03-28T13:56:45.677Z,135
2018-03-28T13:57:45.951Z,135
2018-03-28T13:58:46.463Z,130
2018-03-28T13:59:46.694Z,125
2018-03-28T14:00:46.633Z,125
2018-03-28T14:01:47.052Z,110
2018-03-28T14:02:47.446Z,125
2018-03-28T14:03:47.864Z,125
2018-03-28T14:04:47.606Z,115
2018-03-28T14:05:47.541Z,130
2018-03-28T14:06:48.051Z,140
2018-03-28T14:07:47.796Z,115
2018-03-28T14:08:47.928Z,110
2018-03-28T14:09:48.307Z,130
2018-03-28T14:10:48.713Z,120
2018-03-28T14:11:49.122Z,110
2018-03-28T14:12:49.476Z,110
2018-03-28T14:13:49.499Z,115
2018-03-28T14:14:49.273Z,130
2018-03-28T14:15:49.665Z,125
2018-03-28T14:16:50.025Z,115
2018-03-28T14:17:49.271Z,120
2018-03-28T14:18:50.113Z,115
2018-03-28T14:19:49.638Z,110
2018-03-28T14:20:49.586Z,120
2018-03-28T14:21:50.142Z,125
2018-03-28T14:22:49.817Z,110
2018-03-28T14:23:50.221Z,110
2018-03-28T14:24:50.076Z,110
2018-03-28T14:25:50.363Z,95
2018-03-28T14:26:50.772Z,110
2018-03-28T14:27:50.891Z,125
2018-03-28T14:28:51.202Z,100
2018-03-28T14:29:51.581Z,105
2018-03-28T14:30:51.860Z,100
2018-03-28T14:31:51.981Z,95
2018-03-28T14:32:52.606Z,100
2018-03-28T14:33:52.399Z,75
2018-03-28T14:34:52.544Z,85
2018-03-28T14:35:52.854Z,85
2018-03-28T14:36:53.263Z,100
2018-03-28T14:37:52.739Z,120
2018-03-28T14:38:53.119Z,105
2018-03-28T14:39:53.507Z,130
2018-03-28T14:40:53.621Z,100
2018-03-28T14:41:54.001Z,110
2018-03-28T14:43:04.179Z,105
2018-03-28T14:43:53.775Z,95
2018-03-28T14:44:53.626Z,95
2018-03-28T14:45:53.390Z,85
2018-03-28T14:46:53.961Z,95
2018-03-28T14:47:53.550Z,90
2018-03-28T14:48:54.366Z,100
2018-03-28T14:49:54.400Z,95
2018-03-28T14:50:54.156Z,90
2018-03-28T14:51:54.369Z,90
2018-03-28T14:52:54.546Z,90
2018-03-28T14:53:54.615Z,85
2018-03-28T14:54:54.991Z,90
2018-03-28T14:55:55.400Z,80
2018-03-28T14:56:55.508Z,80
2018-03-28T14:57:55.810Z,85
2018-03-28T14:58:56.469Z,75
2018-03-28T14:59:56.300Z,65
2018-03-28T15:00:56.165Z,80
2018-03-28T15:01:57.010Z,85
2018-03-28T15:02:57.040Z,85
2018-03-28T15:03:56.749Z,85
2018-03-28T15:04:57.091Z,85
2018-03-28T15:05:57.081Z,85
2018-03-28T15:06:56.756Z,85
2018-03-28T15:07:57.282Z,85
2018-03-28T15:08:57.321Z,85
2018-03-28T15:09:57.349Z,80
2018-03-28T15:10:57.354Z,70
2018-03-28T15:11:57.400Z,70
2018-03-28T15:12:56.889Z,70
2018-03-28T15:13:57.415Z,70
2018-03-28T15:14:57.933Z,55
2018-03-28T15:15:57.635Z,60
2018-03-28T15:16:58.173Z,65
2018-03-28T15:17:57.876Z,60
2018-03-28T15:18:58.406Z,55
2018-03-28T15:19:58.680Z,55
2018-03-28T15:20:58.219Z,50
2018-03-28T15:21:59.124Z,40
2018-03-28T15:22:58.546Z,45
2018-03-28T15:23:59.303Z,45
2018-03-28T15:24:59.358Z,50
2018-03-28T15:25:59.623Z,50
2018-03-28T15:26:58.868Z,50
2018-03-28T15:27:59.429Z,50
2018-03-28T15:28:59.779Z,50
2018-03-28T15:29:59.741Z,55
2018-03-28T15:30:59.205Z,55
2018-03-28T15:31:59.757Z,50
2018-03-28T15:32:59.221Z,50
2018-03-28T15:33:59.767Z,50
2018-03-28T15:34:59.775Z,55
2018-03-28T15:36:00.098Z,40
2018-03-28T15:36:59.804Z,45
2018-03-28T15:38:00.909Z,40
2018-03-28T15:39:00.203Z,40
2018-03-28T15:39:59.907Z,40
2018-03-28T15:41:00.244Z,40
2018-03-28T15:41:59.666Z,40
2018-03-28T15:43:00.015Z,35
2018-03-28T15:43:59.730Z,40
2018-03-28T15:45:00.277Z,40
2018-03-28T15:46:00.509Z,40
2018-03-28T15:47:00.464Z,45
2018-03-28T15:48:00.795Z,40
2018-03-28T15:49:01.052Z,40
2018-03-28T15:50:01.014Z,45
2018-03-28T15:51:00.597Z,45
2018-03-28T15:52:00.393Z,50
2018-03-28T15:53:00.902Z,50
2018-03-28T15:54:01.464Z,50
2018-03-28T15:55:00.783Z,50
2018-03-28T15:56:01.090Z,50
2018-03-28T15:57:00.834Z,50
2018-03-28T15:58:00.235Z,50
2018-03-28T15:59:01.241Z,50
2018-03-28T16:00:01.248Z,50
2018-03-28T16:01:00.684Z,45
2018-03-28T16:02:01.389Z,50
2018-03-28T16:03:02.008Z,45
2018-03-28T16:04:01.449Z,40
2018-03-28T16:05:01.844Z,35
2018-03-28T16:06:01.094Z,40
2018-03-28T16:07:01.462Z,35
2018-03-28T16:08:02.006Z,40
2018-03-28T16:09:02.305Z,35
2018-03-28T16:10:03.285Z,35
2018-03-28T16:11:04.770Z,35
2018-03-28T16:12:01.887Z,35
2018-03-28T16:13:03.876Z,30
2018-03-28T16:14:01.989Z,35
2018-03-28T16:15:02.802Z,30
2018-03-28T16:16:03.687Z,30
2018-03-28T16:17:02.300Z,30
2018-03-28T16:18:02.754Z,30
2018-03-28T16:19:07.687Z,25
2018-03-28T16:20:01.759Z,25
2018-03-28T16:21:02.985Z,25
2018-03-28T16:22:02.592Z,25
2018-03-28T16:23:02.771Z,20
2018-03-28T16:24:03.070Z,25
2018-03-28T16:25:03.891Z,20
2018-03-28T16:26:03.377Z,20
2018-03-28T16:27:03.512Z,20
2018-03-28T16:28:03.096Z,20
2018-03-28T16:29:03.446Z,20
2018-03-28T16:30:02.870Z,20
2018-03-28T16:31:03.700Z,20
2018-03-28T16:32:02.245Z,20
2018-03-28T16:33:02.507Z,20
2018-03-28T16:34:04.041Z,20
2018-03-28T16:35:04.929Z,20
2018-03-28T16:36:03.217Z,20
2018-03-28T16:37:05.296Z,20
2018-03-28T16:38:03.598Z,20
2018-03-28T16:39:04.206Z,15
2018-03-28T16:40:03.934Z,15
2018-03-28T16:41:04.608Z,15
2018-03-28T16:42:03.772Z,15
2018-03-28T16:43:03.627Z,15
2018-03-28T16:44:04.230Z,15
2018-03-28T16:45:03.290Z,10
2018-03-28T16:46:03.143Z,15
2018-03-28T16:47:04.949Z,15
2018-03-28T16:48:05.081Z,15
2018-03-28T16:49:04.393Z,15
2018-03-28T16:50:07.053Z,10
2018-03-28T16:51:06.965Z,15
2018-03-28T16:52:06.483Z,10
2018-03-28T16:53:05.097Z,10
2018-03-28T16:54:05.184Z,10
2018-03-28T16:55:05.894Z,10
2018-03-28T16:56:04.834Z,10
2018-03-28T16:57:04.538Z,10
2018-03-28T16:58:06.225Z,10
2018-03-28T16:59:06.432Z,10
2018-03-28T17:00:12.640Z,5
2018-03-28T17:01:05.268Z,5
2018-03-28T17:02:04.860Z,5
2018-03-28T17:03:05.685Z,5
2018-03-28T17:04:05.396Z,5
2018-03-28T17:05:05.648Z,5
2018-03-28T17:06:06.100Z,5
2018-03-28T17:07:05.607Z,5
2018-03-28T17:08:06.065Z,5
2018-03-28T17:09:05.893Z,5
2018-03-28T17:10:06.655Z,5
2018-03-28T17:11:06.132Z,5
2018-03-28T17:12:06.262Z,5
2018-03-28T17:13:06.126Z,0
2018-03-28T17:14:06.860Z,0
2018-03-28T17:15:06.536Z,0
2018-03-28T17:16:06.918Z,0
2018-03-28T17:17:06.742Z,0
2018-03-28T17:18:06.890Z,0
2018-03-28T17:19:07.586Z,0
2018-03-28T17:20:07.452Z,0
2018-03-28T17:21:07.732Z,0
2018-03-28T17:22:07.626Z,0
2018-03-28T17:23:07.651Z,0
2018-03-28T17:24:08.444Z,0
2018-03-28T17:25:08.518Z,0
2018-03-28T17:26:08.483Z,0
2018-03-28T17:27:08.270Z,0
2018-03-28T17:28:08.938Z,0
2018-03-28T17:29:08.690Z,0
2018-03-28T17:30:09.281Z,0
2018-03-28T17:31:08.882Z,0
2018-03-28T17:32:09.386Z,0
2018-03-28T17:33:09.355Z,0
2018-03-28T17:34:09.534Z,0
2018-03-28T17:35:10.201Z,0
2018-03-28T17:36:10.423Z,0
2018-03-28T17:37:10.293Z,0
2018-03-28T17:38:10.668Z,0
2018-03-28T17:39:11.070Z,0
2018-03-28T17:40:11.024Z,0
2018-03-28T17:41:11.474Z,0
2018-03-28T17:42:11.577Z,0
2018-03-28T17:43:12.004Z,0
2018-03-28T17:44:12.651Z,0
2018-03-28T17:45:12.390Z,0
2018-03-28T17:46:13.076Z,0
2018-03-28T17:47:12.833Z,0
2018-03-28T17:48:12.943Z,0
2018-03-28T17:49:12.785Z,0
2018-03-28T17:50:12.803Z,0
2018-03-28T17:51:13.134Z,0
2018-03-28T17:52:13.373Z,0
2018-03-28T17:53:13.696Z,0
2018-03-28T17:54:14.100Z,0
2018-03-28T17:55:14.551Z,0
2018-03-28T17:56:14.660Z,0
2018-03-28T17:57:15.191Z,0
2018-03-28T17:58:15.096Z,0
2018-03-28T17:59:15.369Z,0
2018-03-28T18:00:22.490Z,0
2018-03-28T18:01:21.827Z,0
2018-03-28T18:02:22.259Z,0
2018-03-28T18:03:22.415Z,0
2018-03-28T18:04:22.430Z,0
2018-03-28T18:05:22.334Z,0
2018-03-28T18:06:21.987Z,0
2018-03-28T18:07:21.732Z,0
2018-03-28T18:08:22.842Z,0
2018-03-28T18:09:22.951Z,0
2018-03-28T18:10:22.725Z,0
2018-03-28T18:11:23.255Z,0
2018-03-28T18:12:23.463Z,0
2018-03-28T18:13:23.624Z,0
2018-03-28T18:14:23.525Z,0
2018-03-28T18:15:23.980Z,0
2018-03-28T18:16:24.602Z,0
2018-03-28T18:17:24.205Z,0
2018-03-28T18:18:24.376Z,0
2018-03-28T18:19:25.100Z,0
2018-03-28T18:20:25.252Z,0
2018-03-28T18:21:25.612Z,0
2018-03-28T18:22:25.473Z,0
2018-03-28T18:23:25.927Z,0
2018-03-28T18:24:26.647Z,0
2018-03-28T18:25:26.400Z,0
2018-03-28T18:26:26.583Z,0
2018-03-28T18:27:27.087Z,0
2018-03-28T18:28:26.526Z,0
2018-03-28T18:29:27.083Z,0
2018-03-28T18:30:27.768Z,0
2018-03-28T18:31:28.234Z,0
2018-03-28T18:32:28.253Z,0
2018-03-28T18:33:28.066Z,0
2018-03-28T18:34:28.062Z,0
2018-03-28T18:35:28.101Z,0
2018-03-28T18:36:28.278Z,0
2018-03-28T18:37:28.993Z,0
2018-03-28T18:38:29.193Z,0
2018-03-28T18:39:29.661Z,0
2018-03-28T18:40:30.163Z,0
2018-03-28T18:41:30.037Z,0
2018-03-28T18:42:30.048Z,0
2018-03-28T18:43:30.724Z,0
2018-03-28T18:44:30.640Z,0
2018-03-28T18:45:31.067Z,0
2018-03-28T18:46:30.830Z,0
2018-03-28T18:47:30.496Z,0
2018-03-28T18:48:31.285Z,0
2018-03-28T18:49:31.063Z,0
2018-03-28T18:50:30.809Z,0
2018-03-28T18:51:30.461Z,0
2018-03-28T18:52:31.587Z,0
2018-03-28T18:53:31.344Z,0
2018-03-28T18:54:32.057Z,0
2018-03-28T18:55:31.937Z,0
2018-03-28T18:56:32.095Z,0
2018-03-28T18:57:31.596Z,0
2018-03-28T18:58:31.553Z,0
2018-03-28T18:59:32.098Z,0
2018-03-28T19:00:32.174Z,0
2018-03-28T19:01:31.912Z,0
2018-03-28T19:02:32.405Z,0
2018-03-28T19:03:32.444Z,0
2018-03-28T19:04:31.867Z,0
2018-03-28T19:05:32.701Z,0
2018-03-28T19:06:32.974Z,0
2018-03-28T19:07:32.988Z,0
2018-03-28T19:08:32.773Z,0
2018-03-28T19:09:32.782Z,0
2018-03-28T19:10:33.055Z,0
2018-03-28T19:11:32.822Z,0
2018-03-28T19:12:32.851Z,0
2018-03-28T19:13:32.896Z,0
2018-03-28T19:14:32.900Z,0
2018-03-28T19:15:33.220Z,0
2018-03-28T19:16:32.942Z,0
2018-03-28T19:17:32.689Z,0
2018-03-28T19:18:33.210Z,0
2018-03-28T19:19:33.505Z,0
2018-03-28T19:20:32.999Z,0
2018-03-28T19:21:33.549Z,0
2018-03-28T19:22:33.496Z,0
2018-03-28T19:23:33.802Z,0
2018-03-28T19:24:33.595Z,0
2018-03-28T19:25:33.566Z,0
2018-03-28T19:26:33.867Z,0
2018-03-28T19:27:33.960Z,0
2018-03-28T19:28:33.911Z,0
2018-03-28T19:29:33.673Z,0
2018-03-28T19:30:33.683Z,0
2018-03-28T19:31:33.439Z,0
2018-03-28T19:32:33.680Z,0
2018-03-28T19:33:34.269Z,0
2018-03-28T19:34:34.002Z,0
2018-03-28T19:35:34.013Z,0
2018-03-28T19:36:34.288Z,0
2018-03-28T19:37:34.503Z,0
2018-03-28T19:38:34.783Z,0
2018-03-28T19:39:34.007Z,0
2018-03-28T19:40:34.576Z,0
2018-03-28T19:41:34.851Z,0
2018-03-28T19:42:34.882Z,0
2018-03-28T19:43:34.620Z,0
2018-03-28T19:44:34.129Z,0
2018-03-28T19:45:34.679Z,0
2018-03-28T19:46:35.151Z,0
2018-03-28T19:47:35.025Z,0
2018-03-28T19:48:35.501Z,0
2018-03-28T19:49:35.515Z,0
2018-03-28T19:50:35.340Z,0
2018-03-28T19:51:35.039Z,0
2018-03-28T19:52:35.518Z,0
2018-03-28T19:53:35.841Z,0
2018-03-28T19:54:35.318Z,0
2018-03-28T19:55:35.806Z,0
2018-03-28T19:56:35.849Z,0
2018-03-28T19:57:35.605Z,0
2018-03-28T19:58:36.376Z,0
2018-03-28T19:59:35.856Z,0
2018-03-28T20:00:36.453Z,0